sensor_id;sensor_type;location;lat;lon;timestamp;pressure;altitude;pressure_sealevel;temperature
12234;BMP180;6179;51.748;8.728;2023-12-14T00:04:47;230388.00;;;222.90
12234;BMP180;6179;51.748;8.728;2023-12-14T00:10:48;230388.00;;;222.90
12234;BMP180;6179;51.748;8.728;2023-12-14T00:16:50;230388.00;;;222.90
12234;BMP180;6179;51.748;8.728;2023-12-14T00:22:51;230388.00;;;222.90
12234;BMP180;6179;51.748;8.728;2023-12-14T00:28:52;230388.00;;;222.90
12234;BMP180;6179;51.748;8.728;2023-12-14T00:34:53;230388.00;;;222.90
12234;BMP180;6179;51.748;8.728;2023-12-14T00:40:54;230388.00;;;222.90
12234;BMP180;6179;51.748;8.728;2023-12-14T00:46:54;230388.00;;;222.90
12234;BMP180;6179;51.748;8.728;2023-12-14T00:52:55;230388.00;;;222.90
12234;BMP180;6179;51.748;8.728;2023-12-14T00:58:56;230388.00;;;222.90
12234;BMP180;6179;51.748;8.728;2023-12-14T01:04:57;230388.00;;;222.90
12234;BMP180;6179;51.748;8.728;2023-12-14T01:10:57;230388.00;;;222.90
12234;BMP180;6179;51.748;8.728;2023-12-14T01:16:58;230388.00;;;222.90
12234;BMP180;6179;51.748;8.728;2023-12-14T01:22:59;230388.00;;;222.90
12234;BMP180;6179;51.748;8.728;2023-12-14T01:29:00;230388.00;;;222.90
12234;BMP180;6179;51.748;8.728;2023-12-14T01:35:01;230388.00;;;222.90
12234;BMP180;6179;51.748;8.728;2023-12-14T01:41:02;230388.00;;;222.90
12234;BMP180;6179;51.748;8.728;2023-12-14T01:47:03;230388.00;;;222.90
12234;BMP180;6179;51.748;8.728;2023-12-14T01:53:04;108412.00;;;222.90
12234;BMP180;6179;51.748;8.728;2023-12-14T01:59:04;230388.00;;;222.90
12234;BMP180;6179;51.748;8.728;2023-12-14T02:05:05;108415.00;;;222.90
12234;BMP180;6179;51.748;8.728;2023-12-14T02:11:06;108418.00;;;222.90
12234;BMP180;6179;51.748;8.728;2023-12-14T02:17:07;108423.00;;;222.90
12234;BMP180;6179;51.748;8.728;2023-12-14T02:23:08;108418.00;;;222.90
12234;BMP180;6179;51.748;8.728;2023-12-14T02:29:09;108418.00;;;222.90
12234;BMP180;6179;51.748;8.728;2023-12-14T02:35:09;108423.00;;;222.90
12234;BMP180;6179;51.748;8.728;2023-12-14T02:41:11;108410.00;;;222.90
12234;BMP180;6179;51.748;8.728;2023-12-14T02:47:11;108412.00;;;222.90
12234;BMP180;6179;51.748;8.728;2023-12-14T02:53:12;108417.00;;;222.90
12234;BMP180;6179;51.748;8.728;2023-12-14T02:59:14;108416.00;;;222.90
12234;BMP180;6179;51.748;8.728;2023-12-14T03:05:15;108418.00;;;222.90
12234;BMP180;6179;51.748;8.728;2023-12-14T03:11:23;108415.00;;;222.90
12234;BMP180;6179;51.748;8.728;2023-12-14T03:17:24;108413.00;;;222.90
12234;BMP180;6179;51.748;8.728;2023-12-14T03:23:25;108422.00;;;222.90
12234;BMP180;6179;51.748;8.728;2023-12-14T03:29:26;108414.00;;;222.90
12234;BMP180;6179;51.748;8.728;2023-12-14T03:35:26;108416.00;;;222.90
12234;BMP180;6179;51.748;8.728;2023-12-14T03:41:27;108411.00;;;222.90
12234;BMP180;6179;51.748;8.728;2023-12-14T03:47:29;108418.00;;;222.90
12234;BMP180;6179;51.748;8.728;2023-12-14T03:53:30;108416.00;;;222.90
12234;BMP180;6179;51.748;8.728;2023-12-14T03:59:31;108413.00;;;222.90
12234;BMP180;6179;51.748;8.728;2023-12-14T04:05:33;108418.00;;;222.90
12234;BMP180;6179;51.748;8.728;2023-12-14T04:11:34;108416.00;;;222.90
12234;BMP180;6179;51.748;8.728;2023-12-14T04:17:36;108412.00;;;222.90
12234;BMP180;6179;51.748;8.728;2023-12-14T04:23:37;108414.00;;;222.90
12234;BMP180;6179;51.748;8.728;2023-12-14T04:29:38;108419.00;;;222.90
12234;BMP180;6179;51.748;8.728;2023-12-14T04:35:40;108416.00;;;222.90
12234;BMP180;6179;51.748;8.728;2023-12-14T04:41:41;108414.00;;;222.90
12234;BMP180;6179;51.748;8.728;2023-12-14T04:47:42;108412.00;;;222.90
12234;BMP180;6179;51.748;8.728;2023-12-14T04:53:43;108417.00;;;222.90
12234;BMP180;6179;51.748;8.728;2023-12-14T04:59:44;108416.00;;;222.90
12234;BMP180;6179;51.748;8.728;2023-12-14T05:05:46;108418.00;;;222.90
12234;BMP180;6179;51.748;8.728;2023-12-14T05:11:47;230388.00;;;222.90
12234;BMP180;6179;51.748;8.728;2023-12-14T05:17:48;230388.00;;;222.90
12234;BMP180;6179;51.748;8.728;2023-12-14T05:23:49;108416.00;;;222.90
12234;BMP180;6179;51.748;8.728;2023-12-14T05:29:50;108412.00;;;222.90
12234;BMP180;6179;51.748;8.728;2023-12-14T05:35:51;108416.00;;;222.90
12234;BMP180;6179;51.748;8.728;2023-12-14T05:41:53;108419.00;;;222.90
12234;BMP180;6179;51.748;8.728;2023-12-14T05:47:55;108419.00;;;222.90
12234;BMP180;6179;51.748;8.728;2023-12-14T05:53:57;108420.00;;;222.90
12234;BMP180;6179;51.748;8.728;2023-12-14T05:59:58;108421.00;;;222.90
12234;BMP180;6179;51.748;8.728;2023-12-14T06:05:59;108410.00;;;222.90
12234;BMP180;6179;51.748;8.728;2023-12-14T06:12:04;108414.00;;;222.90
12234;BMP180;6179;51.748;8.728;2023-12-14T06:18:05;108418.00;;;222.90
12234;BMP180;6179;51.748;8.728;2023-12-14T06:24:07;108415.00;;;222.90
12234;BMP180;6179;51.748;8.728;2023-12-14T06:30:08;108414.00;;;222.90
12234;BMP180;6179;51.748;8.728;2023-12-14T06:36:11;108413.00;;;222.90
12234;BMP180;6179;51.748;8.728;2023-12-14T06:42:12;108409.00;;;222.90
12234;BMP180;6179;51.748;8.728;2023-12-14T06:48:13;108418.00;;;222.90
12234;BMP180;6179;51.748;8.728;2023-12-14T06:54:15;108414.00;;;222.90
12234;BMP180;6179;51.748;8.728;2023-12-14T07:00:16;108414.00;;;222.90
12234;BMP180;6179;51.748;8.728;2023-12-14T07:06:19;108418.00;;;222.90
12234;BMP180;6179;51.748;8.728;2023-12-14T07:12:20;108416.00;;;222.90
12234;BMP180;6179;51.748;8.728;2023-12-14T07:18:21;108419.00;;;222.90
12234;BMP180;6179;51.748;8.728;2023-12-14T07:24:22;108414.00;;;222.90
12234;BMP180;6179;51.748;8.728;2023-12-14T07:30:23;108415.00;;;222.90
12234;BMP180;6179;51.748;8.728;2023-12-14T07:36:25;108408.00;;;222.90
12234;BMP180;6179;51.748;8.728;2023-12-14T07:42:26;108416.00;;;222.90
12234;BMP180;6179;51.748;8.728;2023-12-14T07:48:28;108413.00;;;222.90
12234;BMP180;6179;51.748;8.728;2023-12-14T07:54:29;108421.00;;;222.90
12234;BMP180;6179;51.748;8.728;2023-12-14T08:00:30;108415.00;;;222.90
12234;BMP180;6179;51.748;8.728;2023-12-14T08:06:32;108415.00;;;222.90
12234;BMP180;6179;51.748;8.728;2023-12-14T08:12:33;108412.00;;;222.90
12234;BMP180;6179;51.748;8.728;2023-12-14T08:18:34;108416.00;;;222.90
12234;BMP180;6179;51.748;8.728;2023-12-14T08:24:35;108415.00;;;222.90
12234;BMP180;6179;51.748;8.728;2023-12-14T08:30:36;108412.00;;;222.90
12234;BMP180;6179;51.748;8.728;2023-12-14T08:36:40;108416.00;;;222.90
12234;BMP180;6179;51.748;8.728;2023-12-14T08:42:41;230386.00;;;222.90
12234;BMP180;6179;51.748;8.728;2023-12-14T08:48:42;108415.00;;;222.90
12234;BMP180;6179;51.748;8.728;2023-12-14T08:54:43;108416.00;;;222.90
12234;BMP180;6179;51.748;8.728;2023-12-14T09:00:45;108417.00;;;222.90
12234;BMP180;6179;51.748;8.728;2023-12-14T09:06:46;108417.00;;;222.90
12234;BMP180;6179;51.748;8.728;2023-12-14T09:12:48;108414.00;;;222.90
12234;BMP180;6179;51.748;8.728;2023-12-14T09:18:49;108415.00;;;222.90
12234;BMP180;6179;51.748;8.728;2023-12-14T09:24:50;108422.00;;;222.90
12234;BMP180;6179;51.748;8.728;2023-12-14T09:30:51;108415.00;;;222.90
12234;BMP180;6179;51.748;8.728;2023-12-14T09:36:52;108418.00;;;222.90
12234;BMP180;6179;51.748;8.728;2023-12-14T09:42:54;108415.00;;;222.90
12234;BMP180;6179;51.748;8.728;2023-12-14T09:48:57;108422.00;;;222.90
12234;BMP180;6179;51.748;8.728;2023-12-14T09:55:01;230388.00;;;222.90
12234;BMP180;6179;51.748;8.728;2023-12-14T10:01:25;108415.00;;;222.90
12234;BMP180;6179;51.748;8.728;2023-12-14T10:07:28;108417.00;;;222.90
12234;BMP180;6179;51.748;8.728;2023-12-14T10:13:38;108417.00;;;222.90
12234;BMP180;6179;51.748;8.728;2023-12-14T10:19:43;108418.00;;;222.90
12234;BMP180;6179;51.748;8.728;2023-12-14T10:25:45;230388.00;;;222.90
12234;BMP180;6179;51.748;8.728;2023-12-14T10:31:49;108415.00;;;222.90
12234;BMP180;6179;51.748;8.728;2023-12-14T10:37:51;108413.00;;;222.90
12234;BMP180;6179;51.748;8.728;2023-12-14T10:43:56;108415.00;;;222.90
12234;BMP180;6179;51.748;8.728;2023-12-14T10:50:01;108422.00;;;222.90
12234;BMP180;6179;51.748;8.728;2023-12-14T10:56:05;108417.00;;;222.90
12234;BMP180;6179;51.748;8.728;2023-12-14T11:02:11;108419.00;;;222.90
12234;BMP180;6179;51.748;8.728;2023-12-14T11:08:16;108414.00;;;222.90
12234;BMP180;6179;51.748;8.728;2023-12-14T11:14:19;108420.00;;;222.90
12234;BMP180;6179;51.748;8.728;2023-12-14T11:20:24;108416.00;;;222.90
12234;BMP180;6179;51.748;8.728;2023-12-14T11:26:26;108417.00;;;222.90
12234;BMP180;6179;51.748;8.728;2023-12-14T11:32:29;108415.00;;;222.90
12234;BMP180;6179;51.748;8.728;2023-12-14T11:38:31;108416.00;;;222.90
12234;BMP180;6179;51.748;8.728;2023-12-14T11:44:32;108419.00;;;222.90
12234;BMP180;6179;51.748;8.728;2023-12-14T11:50:34;108417.00;;;222.90
12234;BMP180;6179;51.748;8.728;2023-12-14T11:56:35;108413.00;;;222.90
12234;BMP180;6179;51.748;8.728;2023-12-14T12:02:36;108413.00;;;222.90
12234;BMP180;6179;51.748;8.728;2023-12-14T12:08:42;108415.00;;;222.90
12234;BMP180;6179;51.748;8.728;2023-12-14T12:14:43;108412.00;;;222.90
12234;BMP180;6179;51.748;8.728;2023-12-14T12:20:44;108417.00;;;222.90
12234;BMP180;6179;51.748;8.728;2023-12-14T12:26:45;108416.00;;;222.90
12234;BMP180;6179;51.748;8.728;2023-12-14T12:32:47;108416.00;;;222.90
12234;BMP180;6179;51.748;8.728;2023-12-14T12:38:48;108420.00;;;222.90
12234;BMP180;6179;51.748;8.728;2023-12-14T12:44:49;230388.00;;;222.90
12234;BMP180;6179;51.748;8.728;2023-12-14T12:50:50;108417.00;;;222.90
12234;BMP180;6179;51.748;8.728;2023-12-14T12:56:51;108413.00;;;222.90
12234;BMP180;6179;51.748;8.728;2023-12-14T13:02:52;55595.00;;;222.90
12234;BMP180;6179;51.748;8.728;2023-12-14T13:08:54;108422.00;;;222.90
12234;BMP180;6179;51.748;8.728;2023-12-14T13:14:55;108414.00;;;222.90
12234;BMP180;6179;51.748;8.728;2023-12-14T13:20:56;108413.00;;;222.90
12234;BMP180;6179;51.748;8.728;2023-12-14T13:26:58;230388.00;;;222.90
12234;BMP180;6179;51.748;8.728;2023-12-14T13:32:59;98305.00;;;222.90
12234;BMP180;6179;51.748;8.728;2023-12-14T13:39:00;230388.00;;;222.90
12234;BMP180;6179;51.748;8.728;2023-12-14T13:45:03;230388.00;;;222.90
12234;BMP180;6179;51.748;8.728;2023-12-14T13:51:04;230388.00;;;222.90
12234;BMP180;6179;51.748;8.728;2023-12-14T13:57:05;212310.00;;;222.90
12234;BMP180;6179;51.748;8.728;2023-12-14T14:03:07;108415.00;;;222.90
12234;BMP180;6179;51.748;8.728;2023-12-14T14:09:08;108419.00;;;222.90
12234;BMP180;6179;51.748;8.728;2023-12-14T14:15:10;108416.00;;;222.90
12234;BMP180;6179;51.748;8.728;2023-12-14T14:21:11;108412.00;;;222.90
12234;BMP180;6179;51.748;8.728;2023-12-14T14:27:12;98222.00;;;222.90
12234;BMP180;6179;51.748;8.728;2023-12-14T14:33:15;172070.00;;;87.40
12234;BMP180;6179;51.748;8.728;2023-12-14T14:39:19;230388.00;;;222.90
12234;BMP180;6179;51.748;8.728;2023-12-14T14:45:23;230388.00;;;222.90
12234;BMP180;6179;51.748;8.728;2023-12-14T14:51:24;230388.00;;;222.90
12234;BMP180;6179;51.748;8.728;2023-12-14T14:57:27;230388.00;;;222.90
12234;BMP180;6179;51.748;8.728;2023-12-14T15:03:28;108419.00;;;222.90
12234;BMP180;6179;51.748;8.728;2023-12-14T15:09:29;108414.00;;;222.90
12234;BMP180;6179;51.748;8.728;2023-12-14T15:15:30;230388.00;;;222.90
12234;BMP180;6179;51.748;8.728;2023-12-14T15:21:33;230388.00;;;222.90
12234;BMP180;6179;51.748;8.728;2023-12-14T15:27:34;230388.00;;;222.90
12234;BMP180;6179;51.748;8.728;2023-12-14T15:33:35;230388.00;;;222.90
12234;BMP180;6179;51.748;8.728;2023-12-14T15:39:37;230388.00;;;222.90
12234;BMP180;6179;51.748;8.728;2023-12-14T15:45:38;230388.00;;;222.90
12234;BMP180;6179;51.748;8.728;2023-12-14T15:51:40;230388.00;;;222.90
12234;BMP180;6179;51.748;8.728;2023-12-14T15:57:41;230388.00;;;222.90
12234;BMP180;6179;51.748;8.728;2023-12-14T16:03:44;230388.00;;;222.90
12234;BMP180;6179;51.748;8.728;2023-12-14T16:09:45;230388.00;;;222.90
12234;BMP180;6179;51.748;8.728;2023-12-14T16:15:48;230388.00;;;222.90
12234;BMP180;6179;51.748;8.728;2023-12-14T16:21:49;230388.00;;;222.90
12234;BMP180;6179;51.748;8.728;2023-12-14T16:27:51;230388.00;;;222.90
12234;BMP180;6179;51.748;8.728;2023-12-14T16:33:53;230388.00;;;222.90
12234;BMP180;6179;51.748;8.728;2023-12-14T16:39:54;230388.00;;;222.90
12234;BMP180;6179;51.748;8.728;2023-12-14T16:45:55;230388.00;;;222.90
12234;BMP180;6179;51.748;8.728;2023-12-14T16:51:57;230388.00;;;222.90
12234;BMP180;6179;51.748;8.728;2023-12-14T16:57:58;230388.00;;;222.90
12234;BMP180;6179;51.748;8.728;2023-12-14T17:04:00;230388.00;;;222.90
12234;BMP180;6179;51.748;8.728;2023-12-14T17:10:01;230388.00;;;222.90
12234;BMP180;6179;51.748;8.728;2023-12-14T17:16:02;230388.00;;;222.90
12234;BMP180;6179;51.748;8.728;2023-12-14T17:22:11;230388.00;;;222.90
12234;BMP180;6179;51.748;8.728;2023-12-14T17:28:13;230388.00;;;222.90
12234;BMP180;6179;51.748;8.728;2023-12-14T17:34:14;230388.00;;;222.90
12234;BMP180;6179;51.748;8.728;2023-12-14T17:40:15;230388.00;;;222.90
12234;BMP180;6179;51.748;8.728;2023-12-14T17:46:16;230388.00;;;222.90
12234;BMP180;6179;51.748;8.728;2023-12-14T17:52:20;230388.00;;;222.90
12234;BMP180;6179;51.748;8.728;2023-12-14T17:58:21;230388.00;;;222.90
12234;BMP180;6179;51.748;8.728;2023-12-14T18:04:22;230388.00;;;222.90
12234;BMP180;6179;51.748;8.728;2023-12-14T18:10:25;230388.00;;;222.90
12234;BMP180;6179;51.748;8.728;2023-12-14T18:16:26;230388.00;;;222.90
12234;BMP180;6179;51.748;8.728;2023-12-14T18:22:27;230388.00;;;222.90
12234;BMP180;6179;51.748;8.728;2023-12-14T18:28:28;230388.00;;;222.90
12234;BMP180;6179;51.748;8.728;2023-12-14T18:34:29;230388.00;;;222.90
12234;BMP180;6179;51.748;8.728;2023-12-14T18:40:31;230388.00;;;222.90
12234;BMP180;6179;51.748;8.728;2023-12-14T18:46:32;230388.00;;;222.90
12234;BMP180;6179;51.748;8.728;2023-12-14T18:52:33;230388.00;;;222.90
12234;BMP180;6179;51.748;8.728;2023-12-14T18:58:34;230388.00;;;222.90
12234;BMP180;6179;51.748;8.728;2023-12-14T19:04:35;230388.00;;;222.90
12234;BMP180;6179;51.748;8.728;2023-12-14T19:10:36;230388.00;;;222.90
12234;BMP180;6179;51.748;8.728;2023-12-14T19:16:38;108416.00;;;222.90
12234;BMP180;6179;51.748;8.728;2023-12-14T19:22:39;230388.00;;;222.90
12234;BMP180;6179;51.748;8.728;2023-12-14T19:28:40;230388.00;;;222.90
12234;BMP180;6179;51.748;8.728;2023-12-14T19:34:41;230388.00;;;222.90
12234;BMP180;6179;51.748;8.728;2023-12-14T19:40:44;108419.00;;;222.90
12234;BMP180;6179;51.748;8.728;2023-12-14T19:46:48;108412.00;;;222.90
12234;BMP180;6179;51.748;8.728;2023-12-14T19:52:49;108416.00;;;222.90
12234;BMP180;6179;51.748;8.728;2023-12-14T19:58:51;230388.00;;;222.90
12234;BMP180;6179;51.748;8.728;2023-12-14T20:04:54;108415.00;;;222.90
12234;BMP180;6179;51.748;8.728;2023-12-14T20:10:55;108416.00;;;222.90
12234;BMP180;6179;51.748;8.728;2023-12-14T20:16:56;108413.00;;;222.90
12234;BMP180;6179;51.748;8.728;2023-12-14T20:22:58;108419.00;;;222.90
12234;BMP180;6179;51.748;8.728;2023-12-14T20:29:00;108416.00;;;222.90
12234;BMP180;6179;51.748;8.728;2023-12-14T20:35:01;108414.00;;;222.90
12234;BMP180;6179;51.748;8.728;2023-12-14T20:41:02;108415.00;;;222.90
12234;BMP180;6179;51.748;8.728;2023-12-14T20:47:04;108414.00;;;222.90
12234;BMP180;6179;51.748;8.728;2023-12-14T20:53:06;108418.00;;;222.90
12234;BMP180;6179;51.748;8.728;2023-12-14T20:59:07;230388.00;;;222.90
12234;BMP180;6179;51.748;8.728;2023-12-14T21:05:08;108414.00;;;222.90
12234;BMP180;6179;51.748;8.728;2023-12-14T21:11:10;108416.00;;;222.90
12234;BMP180;6179;51.748;8.728;2023-12-14T21:17:11;108417.00;;;222.90
12234;BMP180;6179;51.748;8.728;2023-12-14T21:23:12;230388.00;;;222.90
12234;BMP180;6179;51.748;8.728;2023-12-14T21:29:13;108410.00;;;222.90
12234;BMP180;6179;51.748;8.728;2023-12-14T21:35:15;108414.00;;;222.90
12234;BMP180;6179;51.748;8.728;2023-12-14T21:41:16;108416.00;;;222.90
12234;BMP180;6179;51.748;8.728;2023-12-14T21:47:17;108418.00;;;222.90
12234;BMP180;6179;51.748;8.728;2023-12-14T21:53:19;108410.00;;;222.90
12234;BMP180;6179;51.748;8.728;2023-12-14T21:59:20;108414.00;;;222.90
12234;BMP180;6179;51.748;8.728;2023-12-14T22:05:21;108416.00;;;222.90
12234;BMP180;6179;51.748;8.728;2023-12-14T22:11:23;108416.00;;;222.90
12234;BMP180;6179;51.748;8.728;2023-12-14T22:17:24;108414.00;;;222.90
12234;BMP180;6179;51.748;8.728;2023-12-14T22:23:25;108416.00;;;222.90
12234;BMP180;6179;51.748;8.728;2023-12-14T22:29:26;108414.00;;;222.90
12234;BMP180;6179;51.748;8.728;2023-12-14T22:35:27;108415.00;;;222.90
12234;BMP180;6179;51.748;8.728;2023-12-14T22:41:30;108415.00;;;222.90
12234;BMP180;6179;51.748;8.728;2023-12-14T22:47:31;108416.00;;;222.90
12234;BMP180;6179;51.748;8.728;2023-12-14T22:53:32;108414.00;;;222.90
12234;BMP180;6179;51.748;8.728;2023-12-14T22:59:36;108416.00;;;222.90
12234;BMP180;6179;51.748;8.728;2023-12-14T23:05:40;108414.00;;;222.90
12234;BMP180;6179;51.748;8.728;2023-12-14T23:11:41;108412.00;;;222.90
12234;BMP180;6179;51.748;8.728;2023-12-14T23:17:42;108415.00;;;222.90
12234;BMP180;6179;51.748;8.728;2023-12-14T23:23:44;108418.00;;;222.90
12234;BMP180;6179;51.748;8.728;2023-12-14T23:29:45;108416.00;;;222.90
12234;BMP180;6179;51.748;8.728;2023-12-14T23:36:17;108419.00;;;222.90
12234;BMP180;6179;51.748;8.728;2023-12-14T23:42:20;108413.00;;;222.90
12234;BMP180;6179;51.748;8.728;2023-12-14T23:48:22;108418.00;;;222.90
12234;BMP180;6179;51.748;8.728;2023-12-14T23:54:23;108419.00;;;222.90
